sensor_id;sensor_type;location;lat;lon;timestamp;P1;durP1;ratioP1;P2;durP2;ratioP2
2622;SDS011;1321;48.690;9.022;2022-08-19T00:01:52;9.40;;;8.50;;
2622;SDS011;1321;48.690;9.022;2022-08-19T00:04:22;8.80;;;8.00;;
2622;SDS011;1321;48.690;9.022;2022-08-19T00:06:53;11.33;;;10.23;;
2622;SDS011;1321;48.690;9.022;2022-08-19T00:09:23;11.20;;;10.00;;
2622;SDS011;1321;48.690;9.022;2022-08-19T00:11:52;10.13;;;9.13;;
2622;SDS011;1321;48.690;9.022;2022-08-19T00:14:23;12.57;;;8.90;;
2622;SDS011;1321;48.690;9.022;2022-08-19T00:16:52;10.33;;;8.67;;
2622;SDS011;1321;48.690;9.022;2022-08-19T00:19:21;11.73;;;9.70;;
2622;SDS011;1321;48.690;9.022;2022-08-19T00:21:51;10.47;;;8.90;;
2622;SDS011;1321;48.690;9.022;2022-08-19T00:24:21;12.67;;;10.20;;
2622;SDS011;1321;48.690;9.022;2022-08-19T00:26:50;10.83;;;9.67;;
2622;SDS011;1321;48.690;9.022;2022-08-19T00:29:19;12.40;;;9.97;;
2622;SDS011;1321;48.690;9.022;2022-08-19T00:31:48;11.03;;;9.20;;
2622;SDS011;1321;48.690;9.022;2022-08-19T00:34:19;12.47;;;9.87;;
2622;SDS011;1321;48.690;9.022;2022-08-19T00:36:48;12.50;;;10.27;;
2622;SDS011;1321;48.690;9.022;2022-08-19T00:39:18;14.00;;;10.07;;
2622;SDS011;1321;48.690;9.022;2022-08-19T00:41:46;12.77;;;9.77;;
2622;SDS011;1321;48.690;9.022;2022-08-19T00:44:17;12.03;;;10.07;;
2622;SDS011;1321;48.690;9.022;2022-08-19T00:46:53;12.07;;;10.30;;
2622;SDS011;1321;48.690;9.022;2022-08-19T00:49:27;11.43;;;9.70;;
2622;SDS011;1321;48.690;9.022;2022-08-19T00:52:00;11.50;;;10.30;;
2622;SDS011;1321;48.690;9.022;2022-08-19T00:54:33;11.47;;;9.13;;
2622;SDS011;1321;48.690;9.022;2022-08-19T00:57:03;11.77;;;9.90;;
2622;SDS011;1321;48.690;9.022;2022-08-19T00:59:35;15.33;;;11.90;;
2622;SDS011;1321;48.690;9.022;2022-08-19T01:02:26;12.13;;;9.47;;
2622;SDS011;1321;48.690;9.022;2022-08-19T01:04:55;14.53;;;10.70;;
2622;SDS011;1321;48.690;9.022;2022-08-19T01:07:23;13.27;;;10.90;;
2622;SDS011;1321;48.690;9.022;2022-08-19T01:09:53;11.43;;;10.33;;
2622;SDS011;1321;48.690;9.022;2022-08-19T01:12:21;11.27;;;9.43;;
2622;SDS011;1321;48.690;9.022;2022-08-19T01:14:50;14.87;;;10.13;;
2622;SDS011;1321;48.690;9.022;2022-08-19T01:17:19;13.37;;;10.53;;
2622;SDS011;1321;48.690;9.022;2022-08-19T01:19:49;13.10;;;10.50;;
2622;SDS011;1321;48.690;9.022;2022-08-19T01:22:19;12.03;;;10.83;;
2622;SDS011;1321;48.690;9.022;2022-08-19T01:24:59;14.43;;;11.43;;
2622;SDS011;1321;48.690;9.022;2022-08-19T01:27:37;12.90;;;10.80;;
2622;SDS011;1321;48.690;9.022;2022-08-19T01:30:10;12.80;;;10.40;;
2622;SDS011;1321;48.690;9.022;2022-08-19T01:32:40;13.07;;;11.20;;
2622;SDS011;1321;48.690;9.022;2022-08-19T01:35:10;12.83;;;10.10;;
2622;SDS011;1321;48.690;9.022;2022-08-19T01:37:45;13.23;;;11.90;;
2622;SDS011;1321;48.690;9.022;2022-08-19T01:40:15;16.20;;;12.10;;
2622;SDS011;1321;48.690;9.022;2022-08-19T01:42:43;12.73;;;11.37;;
2622;SDS011;1321;48.690;9.022;2022-08-19T01:45:12;13.57;;;11.97;;
2622;SDS011;1321;48.690;9.022;2022-08-19T01:47:40;16.43;;;11.87;;
2622;SDS011;1321;48.690;9.022;2022-08-19T01:50:17;13.50;;;10.87;;
2622;SDS011;1321;48.690;9.022;2022-08-19T01:52:48;13.37;;;10.87;;
2622;SDS011;1321;48.690;9.022;2022-08-19T01:55:32;12.43;;;10.73;;
2622;SDS011;1321;48.690;9.022;2022-08-19T01:58:07;13.17;;;10.90;;
2622;SDS011;1321;48.690;9.022;2022-08-19T02:00:38;13.10;;;11.17;;
2622;SDS011;1321;48.690;9.022;2022-08-19T02:03:06;14.63;;;12.53;;
2622;SDS011;1321;48.690;9.022;2022-08-19T02:05:37;15.03;;;12.20;;
2622;SDS011;1321;48.690;9.022;2022-08-19T02:08:08;14.77;;;11.50;;
2622;SDS011;1321;48.690;9.022;2022-08-19T02:10:38;15.90;;;12.40;;
2622;SDS011;1321;48.690;9.022;2022-08-19T02:13:07;13.97;;;12.33;;
2622;SDS011;1321;48.690;9.022;2022-08-19T02:15:36;13.53;;;12.13;;
2622;SDS011;1321;48.690;9.022;2022-08-19T02:18:04;17.00;;;13.07;;
2622;SDS011;1321;48.690;9.022;2022-08-19T02:20:34;15.30;;;12.00;;
2622;SDS011;1321;48.690;9.022;2022-08-19T02:23:03;16.63;;;12.90;;
2622;SDS011;1321;48.690;9.022;2022-08-19T02:25:40;13.83;;;11.23;;
2622;SDS011;1321;48.690;9.022;2022-08-19T02:28:10;17.17;;;13.10;;
2622;SDS011;1321;48.690;9.022;2022-08-19T02:30:44;14.00;;;12.50;;
2622;SDS011;1321;48.690;9.022;2022-08-19T02:33:14;14.27;;;12.13;;
2622;SDS011;1321;48.690;9.022;2022-08-19T02:35:42;13.40;;;11.33;;
2622;SDS011;1321;48.690;9.022;2022-08-19T02:38:11;15.07;;;11.43;;
2622;SDS011;1321;48.690;9.022;2022-08-19T02:40:55;16.97;;;13.50;;
2622;SDS011;1321;48.690;9.022;2022-08-19T02:43:25;15.13;;;11.77;;
2622;SDS011;1321;48.690;9.022;2022-08-19T02:45:54;14.33;;;12.67;;
2622;SDS011;1321;48.690;9.022;2022-08-19T02:48:23;14.83;;;12.70;;
2622;SDS011;1321;48.690;9.022;2022-08-19T02:50:53;15.10;;;12.63;;
2622;SDS011;1321;48.690;9.022;2022-08-19T02:53:22;14.90;;;11.97;;
2622;SDS011;1321;48.690;9.022;2022-08-19T02:55:54;14.57;;;11.50;;
2622;SDS011;1321;48.690;9.022;2022-08-19T02:58:23;12.13;;;10.93;;
2622;SDS011;1321;48.690;9.022;2022-08-19T03:00:54;15.63;;;12.57;;
2622;SDS011;1321;48.690;9.022;2022-08-19T03:03:24;13.97;;;12.17;;
2622;SDS011;1321;48.690;9.022;2022-08-19T03:06:02;13.90;;;12.47;;
2622;SDS011;1321;48.690;9.022;2022-08-19T03:08:31;14.50;;;12.00;;
2622;SDS011;1321;48.690;9.022;2022-08-19T03:11:01;16.13;;;13.63;;
2622;SDS011;1321;48.690;9.022;2022-08-19T03:13:30;14.80;;;12.50;;
2622;SDS011;1321;48.690;9.022;2022-08-19T03:15:59;16.70;;;12.87;;
2622;SDS011;1321;48.690;9.022;2022-08-19T03:18:27;16.80;;;13.90;;
2622;SDS011;1321;48.690;9.022;2022-08-19T03:20:55;15.50;;;13.67;;
2622;SDS011;1321;48.690;9.022;2022-08-19T03:23:23;16.97;;;13.00;;
2622;SDS011;1321;48.690;9.022;2022-08-19T03:25:52;16.87;;;13.60;;
2622;SDS011;1321;48.690;9.022;2022-08-19T03:28:42;20.50;;;13.60;;
2622;SDS011;1321;48.690;9.022;2022-08-19T03:31:23;15.70;;;12.47;;
2622;SDS011;1321;48.690;9.022;2022-08-19T03:34:14;20.87;;;15.60;;
2622;SDS011;1321;48.690;9.022;2022-08-19T03:36:45;17.30;;;14.70;;
2622;SDS011;1321;48.690;9.022;2022-08-19T03:39:14;15.23;;;12.20;;
2622;SDS011;1321;48.690;9.022;2022-08-19T03:41:44;19.60;;;13.80;;
2622;SDS011;1321;48.690;9.022;2022-08-19T03:44:16;16.87;;;13.80;;
2622;SDS011;1321;48.690;9.022;2022-08-19T03:46:46;15.73;;;12.93;;
2622;SDS011;1321;48.690;9.022;2022-08-19T03:49:15;20.50;;;14.87;;
2622;SDS011;1321;48.690;9.022;2022-08-19T03:51:46;15.77;;;13.40;;
2622;SDS011;1321;48.690;9.022;2022-08-19T03:54:17;16.97;;;14.37;;
2622;SDS011;1321;48.690;9.022;2022-08-19T03:56:49;14.27;;;12.77;;
2622;SDS011;1321;48.690;9.022;2022-08-19T03:59:22;17.80;;;14.80;;
2622;SDS011;1321;48.690;9.022;2022-08-19T04:01:52;15.20;;;13.43;;
2622;SDS011;1321;48.690;9.022;2022-08-19T04:04:22;18.70;;;14.73;;
2622;SDS011;1321;48.690;9.022;2022-08-19T04:06:54;20.37;;;14.97;;
2622;SDS011;1321;48.690;9.022;2022-08-19T04:09:23;18.70;;;13.90;;
2622;SDS011;1321;48.690;9.022;2022-08-19T04:11:52;17.60;;;15.27;;
2622;SDS011;1321;48.690;9.022;2022-08-19T04:14:24;16.37;;;14.03;;
2622;SDS011;1321;48.690;9.022;2022-08-19T04:16:54;16.50;;;13.80;;
2622;SDS011;1321;48.690;9.022;2022-08-19T04:19:23;18.27;;;15.10;;
2622;SDS011;1321;48.690;9.022;2022-08-19T04:21:53;19.10;;;14.40;;
2622;SDS011;1321;48.690;9.022;2022-08-19T04:24:21;18.17;;;15.00;;
2622;SDS011;1321;48.690;9.022;2022-08-19T04:26:50;15.80;;;13.47;;
2622;SDS011;1321;48.690;9.022;2022-08-19T04:29:20;16.00;;;13.53;;
2622;SDS011;1321;48.690;9.022;2022-08-19T04:31:53;21.00;;;15.90;;
2622;SDS011;1321;48.690;9.022;2022-08-19T04:34:23;16.63;;;14.43;;
2622;SDS011;1321;48.690;9.022;2022-08-19T04:36:53;17.87;;;14.50;;
2622;SDS011;1321;48.690;9.022;2022-08-19T04:39:24;15.33;;;13.47;;
2622;SDS011;1321;48.690;9.022;2022-08-19T04:42:16;16.70;;;14.10;;
2622;SDS011;1321;48.690;9.022;2022-08-19T04:45:02;20.43;;;15.53;;
2622;SDS011;1321;48.690;9.022;2022-08-19T04:47:41;19.97;;;14.40;;
2622;SDS011;1321;48.690;9.022;2022-08-19T04:50:23;18.23;;;16.30;;
2622;SDS011;1321;48.690;9.022;2022-08-19T04:52:52;20.33;;;15.70;;
2622;SDS011;1321;48.690;9.022;2022-08-19T04:55:22;17.80;;;13.90;;
2622;SDS011;1321;48.690;9.022;2022-08-19T04:57:51;16.10;;;14.07;;
2622;SDS011;1321;48.690;9.022;2022-08-19T05:00:19;17.30;;;14.50;;
2622;SDS011;1321;48.690;9.022;2022-08-19T05:02:49;18.87;;;15.00;;
2622;SDS011;1321;48.690;9.022;2022-08-19T05:05:17;19.70;;;16.33;;
2622;SDS011;1321;48.690;9.022;2022-08-19T05:07:46;20.37;;;16.40;;
2622;SDS011;1321;48.690;9.022;2022-08-19T05:10:14;18.27;;;15.30;;
2622;SDS011;1321;48.690;9.022;2022-08-19T05:12:42;21.70;;;17.10;;
2622;SDS011;1321;48.690;9.022;2022-08-19T05:15:10;21.63;;;17.43;;
2622;SDS011;1321;48.690;9.022;2022-08-19T05:17:38;19.07;;;15.20;;
2622;SDS011;1321;48.690;9.022;2022-08-19T05:20:29;18.93;;;15.40;;
2622;SDS011;1321;48.690;9.022;2022-08-19T05:23:15;17.13;;;14.50;;
2622;SDS011;1321;48.690;9.022;2022-08-19T05:25:48;17.30;;;15.20;;
2622;SDS011;1321;48.690;9.022;2022-08-19T05:28:16;23.67;;;15.67;;
2622;SDS011;1321;48.690;9.022;2022-08-19T05:30:45;19.30;;;15.20;;
2622;SDS011;1321;48.690;9.022;2022-08-19T05:33:14;16.80;;;14.20;;
2622;SDS011;1321;48.690;9.022;2022-08-19T05:35:44;17.53;;;15.13;;
2622;SDS011;1321;48.690;9.022;2022-08-19T05:38:12;15.80;;;14.10;;
2622;SDS011;1321;48.690;9.022;2022-08-19T05:40:40;19.30;;;14.90;;
2622;SDS011;1321;48.690;9.022;2022-08-19T05:43:12;18.37;;;14.57;;
2622;SDS011;1321;48.690;9.022;2022-08-19T05:45:42;18.17;;;15.40;;
2622;SDS011;1321;48.690;9.022;2022-08-19T05:48:10;17.60;;;14.43;;
2622;SDS011;1321;48.690;9.022;2022-08-19T05:50:39;17.70;;;14.57;;
2622;SDS011;1321;48.690;9.022;2022-08-19T05:53:10;17.87;;;14.93;;
2622;SDS011;1321;48.690;9.022;2022-08-19T05:55:38;18.23;;;14.47;;
2622;SDS011;1321;48.690;9.022;2022-08-19T05:58:06;16.73;;;14.33;;
2622;SDS011;1321;48.690;9.022;2022-08-19T06:00:34;17.70;;;15.10;;
2622;SDS011;1321;48.690;9.022;2022-08-19T06:03:03;21.53;;;16.70;;
2622;SDS011;1321;48.690;9.022;2022-08-19T06:05:38;19.93;;;16.23;;
2622;SDS011;1321;48.690;9.022;2022-08-19T06:08:18;15.83;;;14.20;;
2622;SDS011;1321;48.690;9.022;2022-08-19T06:11:11;19.07;;;15.30;;
2622;SDS011;1321;48.690;9.022;2022-08-19T06:13:41;18.57;;;15.73;;
2622;SDS011;1321;48.690;9.022;2022-08-19T06:16:11;17.17;;;14.43;;
2622;SDS011;1321;48.690;9.022;2022-08-19T06:18:39;19.80;;;14.40;;
2622;SDS011;1321;48.690;9.022;2022-08-19T06:21:07;18.30;;;15.13;;
2622;SDS011;1321;48.690;9.022;2022-08-19T06:23:37;18.47;;;15.20;;
2622;SDS011;1321;48.690;9.022;2022-08-19T06:26:05;17.73;;;12.50;;
2622;SDS011;1321;48.690;9.022;2022-08-19T06:28:34;17.07;;;15.07;;
2622;SDS011;1321;48.690;9.022;2022-08-19T06:31:05;16.57;;;13.83;;
2622;SDS011;1321;48.690;9.022;2022-08-19T06:33:34;16.30;;;13.07;;
2622;SDS011;1321;48.690;9.022;2022-08-19T06:36:04;18.13;;;14.73;;
2622;SDS011;1321;48.690;9.022;2022-08-19T06:38:32;20.30;;;16.00;;
2622;SDS011;1321;48.690;9.022;2022-08-19T06:41:02;16.33;;;14.00;;
2622;SDS011;1321;48.690;9.022;2022-08-19T06:43:33;16.13;;;14.07;;
2622;SDS011;1321;48.690;9.022;2022-08-19T06:46:09;18.10;;;14.13;;
2622;SDS011;1321;48.690;9.022;2022-08-19T06:48:40;18.00;;;14.10;;
2622;SDS011;1321;48.690;9.022;2022-08-19T06:51:11;16.60;;;14.80;;
2622;SDS011;1321;48.690;9.022;2022-08-19T06:53:44;19.30;;;14.03;;
2622;SDS011;1321;48.690;9.022;2022-08-19T06:56:16;16.80;;;14.37;;
2622;SDS011;1321;48.690;9.022;2022-08-19T06:58:46;19.43;;;15.87;;
2622;SDS011;1321;48.690;9.022;2022-08-19T07:01:19;16.93;;;14.17;;
2622;SDS011;1321;48.690;9.022;2022-08-19T07:03:48;18.67;;;15.03;;
2622;SDS011;1321;48.690;9.022;2022-08-19T07:06:17;14.60;;;12.33;;
2622;SDS011;1321;48.690;9.022;2022-08-19T07:09:06;13.93;;;12.47;;
2622;SDS011;1321;48.690;9.022;2022-08-19T07:11:38;15.70;;;13.30;;
2622;SDS011;1321;48.690;9.022;2022-08-19T07:14:12;19.23;;;15.00;;
2622;SDS011;1321;48.690;9.022;2022-08-19T07:16:45;16.43;;;12.57;;
2622;SDS011;1321;48.690;9.022;2022-08-19T07:19:14;16.23;;;12.90;;
2622;SDS011;1321;48.690;9.022;2022-08-19T07:21:44;16.43;;;13.80;;
2622;SDS011;1321;48.690;9.022;2022-08-19T07:24:13;13.83;;;12.10;;
2622;SDS011;1321;48.690;9.022;2022-08-19T07:26:43;17.03;;;12.37;;
2622;SDS011;1321;48.690;9.022;2022-08-19T07:29:17;15.43;;;13.30;;
2622;SDS011;1321;48.690;9.022;2022-08-19T07:31:49;13.63;;;12.23;;
2622;SDS011;1321;48.690;9.022;2022-08-19T07:34:19;15.20;;;13.70;;
2622;SDS011;1321;48.690;9.022;2022-08-19T07:36:47;12.73;;;11.40;;
2622;SDS011;1321;48.690;9.022;2022-08-19T07:39:19;13.87;;;12.27;;
2622;SDS011;1321;48.690;9.022;2022-08-19T07:41:50;15.10;;;13.33;;
2622;SDS011;1321;48.690;9.022;2022-08-19T07:44:19;14.70;;;12.50;;
2622;SDS011;1321;48.690;9.022;2022-08-19T07:46:50;14.67;;;12.03;;
2622;SDS011;1321;48.690;9.022;2022-08-19T07:49:19;14.97;;;11.10;;
2622;SDS011;1321;48.690;9.022;2022-08-19T07:51:48;13.80;;;12.03;;
2622;SDS011;1321;48.690;9.022;2022-08-19T07:54:19;15.93;;;12.17;;
2622;SDS011;1321;48.690;9.022;2022-08-19T07:56:48;14.37;;;12.00;;
2622;SDS011;1321;48.690;9.022;2022-08-19T07:59:19;15.50;;;13.90;;
2622;SDS011;1321;48.690;9.022;2022-08-19T08:01:49;13.67;;;11.33;;
2622;SDS011;1321;48.690;9.022;2022-08-19T08:04:18;14.77;;;12.30;;
2622;SDS011;1321;48.690;9.022;2022-08-19T08:07:04;12.77;;;11.00;;
2622;SDS011;1321;48.690;9.022;2022-08-19T08:09:56;14.37;;;11.03;;
2622;SDS011;1321;48.690;9.022;2022-08-19T08:12:30;13.33;;;11.93;;
2622;SDS011;1321;48.690;9.022;2022-08-19T08:15:04;17.27;;;13.80;;
2622;SDS011;1321;48.690;9.022;2022-08-19T08:17:38;15.37;;;11.70;;
2622;SDS011;1321;48.690;9.022;2022-08-19T08:20:16;13.43;;;11.50;;
2622;SDS011;1321;48.690;9.022;2022-08-19T08:22:45;15.40;;;12.00;;
2622;SDS011;1321;48.690;9.022;2022-08-19T08:25:33;14.30;;;12.80;;
2622;SDS011;1321;48.690;9.022;2022-08-19T08:28:04;13.77;;;11.43;;
2622;SDS011;1321;48.690;9.022;2022-08-19T08:30:38;13.57;;;12.00;;
2622;SDS011;1321;48.690;9.022;2022-08-19T08:33:10;15.10;;;11.90;;
2622;SDS011;1321;48.690;9.022;2022-08-19T08:35:39;13.43;;;11.40;;
2622;SDS011;1321;48.690;9.022;2022-08-19T08:38:09;14.10;;;11.13;;
2622;SDS011;1321;48.690;9.022;2022-08-19T08:40:39;13.70;;;11.37;;
2622;SDS011;1321;48.690;9.022;2022-08-19T08:43:17;12.13;;;10.80;;
2622;SDS011;1321;48.690;9.022;2022-08-19T08:45:52;12.47;;;10.90;;
2622;SDS011;1321;48.690;9.022;2022-08-19T08:48:30;14.03;;;12.40;;
2622;SDS011;1321;48.690;9.022;2022-08-19T08:51:03;12.87;;;11.60;;
2622;SDS011;1321;48.690;9.022;2022-08-19T08:53:35;12.03;;;10.83;;
2622;SDS011;1321;48.690;9.022;2022-08-19T08:56:08;13.57;;;11.60;;
2622;SDS011;1321;48.690;9.022;2022-08-19T08:58:47;12.93;;;10.93;;
2622;SDS011;1321;48.690;9.022;2022-08-19T09:01:21;15.90;;;12.43;;
2622;SDS011;1321;48.690;9.022;2022-08-19T09:03:55;13.40;;;11.03;;
2622;SDS011;1321;48.690;9.022;2022-08-19T09:06:32;13.00;;;11.00;;
2622;SDS011;1321;48.690;9.022;2022-08-19T09:09:10;17.00;;;12.93;;
2622;SDS011;1321;48.690;9.022;2022-08-19T09:11:46;14.97;;;11.80;;
2622;SDS011;1321;48.690;9.022;2022-08-19T09:14:28;12.97;;;11.23;;
2622;SDS011;1321;48.690;9.022;2022-08-19T09:17:17;10.43;;;9.33;;
2622;SDS011;1321;48.690;9.022;2022-08-19T09:19:58;15.70;;;12.73;;
2622;SDS011;1321;48.690;9.022;2022-08-19T09:22:34;12.47;;;11.17;;
2622;SDS011;1321;48.690;9.022;2022-08-19T09:25:04;14.83;;;11.20;;
2622;SDS011;1321;48.690;9.022;2022-08-19T09:27:35;11.00;;;9.30;;
2622;SDS011;1321;48.690;9.022;2022-08-19T09:30:10;13.10;;;10.50;;
2622;SDS011;1321;48.690;9.022;2022-08-19T09:32:42;13.20;;;11.63;;
2622;SDS011;1321;48.690;9.022;2022-08-19T09:35:12;12.67;;;11.23;;
2622;SDS011;1321;48.690;9.022;2022-08-19T09:37:41;14.23;;;11.93;;
2622;SDS011;1321;48.690;9.022;2022-08-19T09:40:10;10.63;;;9.57;;
2622;SDS011;1321;48.690;9.022;2022-08-19T09:42:41;11.93;;;10.70;;
2622;SDS011;1321;48.690;9.022;2022-08-19T09:45:16;11.13;;;9.87;;
2622;SDS011;1321;48.690;9.022;2022-08-19T09:47:49;11.97;;;10.77;;
2622;SDS011;1321;48.690;9.022;2022-08-19T09:50:21;11.77;;;10.60;;
2622;SDS011;1321;48.690;9.022;2022-08-19T09:52:50;11.30;;;10.20;;
2622;SDS011;1321;48.690;9.022;2022-08-19T09:55:23;12.87;;;11.60;;
2622;SDS011;1321;48.690;9.022;2022-08-19T09:57:57;11.30;;;10.10;;
2622;SDS011;1321;48.690;9.022;2022-08-19T10:00:27;11.70;;;10.50;;
2622;SDS011;1321;48.690;9.022;2022-08-19T10:02:57;12.57;;;10.77;;
2622;SDS011;1321;48.690;9.022;2022-08-19T10:05:28;10.33;;;9.23;;
2622;SDS011;1321;48.690;9.022;2022-08-19T10:08:15;12.33;;;10.00;;
2622;SDS011;1321;48.690;9.022;2022-08-19T10:10:46;12.40;;;10.50;;
2622;SDS011;1321;48.690;9.022;2022-08-19T10:13:16;10.90;;;9.80;;
2622;SDS011;1321;48.690;9.022;2022-08-19T10:15:48;11.20;;;10.07;;
2622;SDS011;1321;48.690;9.022;2022-08-19T10:18:20;12.90;;;9.50;;
2622;SDS011;1321;48.690;9.022;2022-08-19T10:20:50;9.43;;;8.40;;
2622;SDS011;1321;48.690;9.022;2022-08-19T10:23:21;10.47;;;9.40;;
2622;SDS011;1321;48.690;9.022;2022-08-19T10:25:51;11.30;;;10.20;;
2622;SDS011;1321;48.690;9.022;2022-08-19T10:28:20;12.93;;;10.57;;
2622;SDS011;1321;48.690;9.022;2022-08-19T10:30:49;10.70;;;9.60;;
2622;SDS011;1321;48.690;9.022;2022-08-19T10:33:20;12.17;;;10.37;;
2622;SDS011;1321;48.690;9.022;2022-08-19T10:36:10;8.93;;;8.23;;
2622;SDS011;1321;48.690;9.022;2022-08-19T10:38:44;9.70;;;8.67;;
2622;SDS011;1321;48.690;9.022;2022-08-19T10:41:22;11.60;;;9.97;;
2622;SDS011;1321;48.690;9.022;2022-08-19T10:43:52;10.87;;;9.73;;
2622;SDS011;1321;48.690;9.022;2022-08-19T10:46:22;9.27;;;7.17;;
2622;SDS011;1321;48.690;9.022;2022-08-19T10:48:53;9.70;;;8.47;;
2622;SDS011;1321;48.690;9.022;2022-08-19T10:51:22;7.90;;;7.10;;
2622;SDS011;1321;48.690;9.022;2022-08-19T10:54:14;7.97;;;7.17;;
2622;SDS011;1321;48.690;9.022;2022-08-19T10:56:56;6.90;;;6.27;;
2622;SDS011;1321;48.690;9.022;2022-08-19T10:59:25;9.43;;;6.07;;
2622;SDS011;1321;48.690;9.022;2022-08-19T11:02:02;7.33;;;6.63;;
2622;SDS011;1321;48.690;9.022;2022-08-19T11:04:34;6.50;;;5.80;;
2622;SDS011;1321;48.690;9.022;2022-08-19T11:07:03;7.03;;;6.33;;
2622;SDS011;1321;48.690;9.022;2022-08-19T11:09:37;6.97;;;6.27;;
2622;SDS011;1321;48.690;9.022;2022-08-19T11:12:09;9.83;;;7.10;;
2622;SDS011;1321;48.690;9.022;2022-08-19T11:14:39;7.87;;;7.17;;
2622;SDS011;1321;48.690;9.022;2022-08-19T11:17:08;7.00;;;6.30;;
2622;SDS011;1321;48.690;9.022;2022-08-19T11:19:39;7.47;;;6.77;;
2622;SDS011;1321;48.690;9.022;2022-08-19T11:22:09;8.93;;;7.97;;
2622;SDS011;1321;48.690;9.022;2022-08-19T11:24:45;9.60;;;8.63;;
2622;SDS011;1321;48.690;9.022;2022-08-19T11:27:14;8.90;;;8.00;;
2622;SDS011;1321;48.690;9.022;2022-08-19T11:29:42;6.90;;;6.30;;
2622;SDS011;1321;48.690;9.022;2022-08-19T11:32:10;9.03;;;8.17;;
2622;SDS011;1321;48.690;9.022;2022-08-19T11:34:41;7.80;;;6.50;;
2622;SDS011;1321;48.690;9.022;2022-08-19T11:37:09;8.17;;;7.47;;
2622;SDS011;1321;48.690;9.022;2022-08-19T11:39:38;7.27;;;6.57;;
2622;SDS011;1321;48.690;9.022;2022-08-19T11:42:08;8.40;;;6.70;;
2622;SDS011;1321;48.690;9.022;2022-08-19T11:44:50;8.00;;;7.20;;
2622;SDS011;1321;48.690;9.022;2022-08-19T11:47:19;7.97;;;7.23;;
2622;SDS011;1321;48.690;9.022;2022-08-19T11:49:49;7.03;;;6.43;;
2622;SDS011;1321;48.690;9.022;2022-08-19T11:52:17;7.17;;;5.70;;
2622;SDS011;1321;48.690;9.022;2022-08-19T11:54:46;6.87;;;6.23;;
2622;SDS011;1321;48.690;9.022;2022-08-19T11:57:16;7.07;;;6.37;;
2622;SDS011;1321;48.690;9.022;2022-08-19T11:59:49;6.23;;;5.63;;
2622;SDS011;1321;48.690;9.022;2022-08-19T12:02:20;6.90;;;6.20;;
2622;SDS011;1321;48.690;9.022;2022-08-19T12:04:51;6.60;;;5.90;;
2622;SDS011;1321;48.690;9.022;2022-08-19T12:07:20;5.60;;;5.20;;
2622;SDS011;1321;48.690;9.022;2022-08-19T12:09:49;6.80;;;5.90;;
2622;SDS011;1321;48.690;9.022;2022-08-19T12:12:20;6.60;;;5.80;;
2622;SDS011;1321;48.690;9.022;2022-08-19T12:14:51;5.80;;;5.30;;
2622;SDS011;1321;48.690;9.022;2022-08-19T12:17:24;5.50;;;4.80;;
2622;SDS011;1321;48.690;9.022;2022-08-19T12:19:56;5.40;;;5.00;;
2622;SDS011;1321;48.690;9.022;2022-08-19T12:22:25;5.53;;;5.03;;
2622;SDS011;1321;48.690;9.022;2022-08-19T12:24:54;5.87;;;5.37;;
2622;SDS011;1321;48.690;9.022;2022-08-19T12:27:23;4.23;;;3.83;;
2622;SDS011;1321;48.690;9.022;2022-08-19T12:30:06;5.20;;;4.80;;
2622;SDS011;1321;48.690;9.022;2022-08-19T12:32:39;4.37;;;4.07;;
2622;SDS011;1321;48.690;9.022;2022-08-19T12:35:09;4.80;;;4.37;;
2622;SDS011;1321;48.690;9.022;2022-08-19T12:37:38;4.97;;;4.57;;
2622;SDS011;1321;48.690;9.022;2022-08-19T12:40:22;5.20;;;4.70;;
2622;SDS011;1321;48.690;9.022;2022-08-19T12:42:52;5.30;;;4.80;;
2622;SDS011;1321;48.690;9.022;2022-08-19T12:45:21;5.97;;;4.90;;
2622;SDS011;1321;48.690;9.022;2022-08-19T12:47:51;4.93;;;4.63;;
2622;SDS011;1321;48.690;9.022;2022-08-19T12:50:22;9.00;;;7.00;;
2622;SDS011;1321;48.690;9.022;2022-08-19T12:52:51;6.33;;;5.80;;
2622;SDS011;1321;48.690;9.022;2022-08-19T12:55:19;6.00;;;5.53;;
2622;SDS011;1321;48.690;9.022;2022-08-19T12:57:48;5.87;;;5.37;;
2622;SDS011;1321;48.690;9.022;2022-08-19T13:00:18;5.70;;;4.60;;
2622;SDS011;1321;48.690;9.022;2022-08-19T13:02:48;5.40;;;4.93;;
2622;SDS011;1321;48.690;9.022;2022-08-19T13:05:19;5.33;;;4.93;;
2622;SDS011;1321;48.690;9.022;2022-08-19T13:07:52;6.40;;;5.90;;
2622;SDS011;1321;48.690;9.022;2022-08-19T13:10:23;5.77;;;5.27;;
2622;SDS011;1321;48.690;9.022;2022-08-19T13:12:52;6.90;;;6.40;;
2622;SDS011;1321;48.690;9.022;2022-08-19T13:15:21;5.20;;;4.70;;
2622;SDS011;1321;48.690;9.022;2022-08-19T13:17:51;5.30;;;4.90;;
2622;SDS011;1321;48.690;9.022;2022-08-19T13:20:24;5.03;;;4.73;;
2622;SDS011;1321;48.690;9.022;2022-08-19T13:22:52;5.77;;;5.33;;
2622;SDS011;1321;48.690;9.022;2022-08-19T13:25:23;5.20;;;4.77;;
2622;SDS011;1321;48.690;9.022;2022-08-19T13:27:51;5.20;;;4.90;;
2622;SDS011;1321;48.690;9.022;2022-08-19T13:30:21;5.60;;;5.13;;
2622;SDS011;1321;48.690;9.022;2022-08-19T13:33:07;5.50;;;5.03;;
2622;SDS011;1321;48.690;9.022;2022-08-19T13:35:44;5.93;;;5.43;;
2622;SDS011;1321;48.690;9.022;2022-08-19T13:38:15;5.70;;;5.20;;
2622;SDS011;1321;48.690;9.022;2022-08-19T13:40:44;5.77;;;5.27;;
2622;SDS011;1321;48.690;9.022;2022-08-19T13:43:13;5.00;;;4.60;;
2622;SDS011;1321;48.690;9.022;2022-08-19T13:45:49;6.07;;;5.67;;
2622;SDS011;1321;48.690;9.022;2022-08-19T13:48:19;4.90;;;4.60;;
2622;SDS011;1321;48.690;9.022;2022-08-19T13:50:48;4.77;;;4.47;;
2622;SDS011;1321;48.690;9.022;2022-08-19T13:53:17;6.20;;;5.70;;
2622;SDS011;1321;48.690;9.022;2022-08-19T13:55:45;7.80;;;7.20;;
2622;SDS011;1321;48.690;9.022;2022-08-19T13:58:14;7.87;;;7.20;;
2622;SDS011;1321;48.690;9.022;2022-08-19T14:00:43;6.13;;;5.63;;
2622;SDS011;1321;48.690;9.022;2022-08-19T14:03:13;7.03;;;6.53;;
2622;SDS011;1321;48.690;9.022;2022-08-19T14:05:41;7.00;;;6.40;;
2622;SDS011;1321;48.690;9.022;2022-08-19T14:08:11;7.43;;;6.70;;
2622;SDS011;1321;48.690;9.022;2022-08-19T14:10:40;7.13;;;6.53;;
2622;SDS011;1321;48.690;9.022;2022-08-19T14:13:12;7.63;;;6.87;;
2622;SDS011;1321;48.690;9.022;2022-08-19T14:15:42;7.67;;;7.07;;
2622;SDS011;1321;48.690;9.022;2022-08-19T14:18:10;6.40;;;6.00;;
2622;SDS011;1321;48.690;9.022;2022-08-19T14:20:39;6.97;;;6.37;;
2622;SDS011;1321;48.690;9.022;2022-08-19T14:23:08;6.40;;;6.00;;
2622;SDS011;1321;48.690;9.022;2022-08-19T14:25:38;7.13;;;6.47;;
2622;SDS011;1321;48.690;9.022;2022-08-19T14:28:06;7.10;;;6.40;;
2622;SDS011;1321;48.690;9.022;2022-08-19T14:30:35;7.67;;;7.07;;
2622;SDS011;1321;48.690;9.022;2022-08-19T14:33:04;7.43;;;6.77;;
2622;SDS011;1321;48.690;9.022;2022-08-19T14:35:34;7.43;;;6.83;;
2622;SDS011;1321;48.690;9.022;2022-08-19T14:38:03;6.93;;;6.33;;
2622;SDS011;1321;48.690;9.022;2022-08-19T14:40:34;6.70;;;6.10;;
2622;SDS011;1321;48.690;9.022;2022-08-19T14:43:04;6.47;;;5.97;;
2622;SDS011;1321;48.690;9.022;2022-08-19T14:45:32;6.80;;;6.30;;
2622;SDS011;1321;48.690;9.022;2022-08-19T14:48:02;6.67;;;6.17;;
2622;SDS011;1321;48.690;9.022;2022-08-19T14:50:31;6.70;;;6.20;;
2622;SDS011;1321;48.690;9.022;2022-08-19T14:53:00;7.43;;;6.90;;
2622;SDS011;1321;48.690;9.022;2022-08-19T14:55:40;6.73;;;6.33;;
2622;SDS011;1321;48.690;9.022;2022-08-19T14:58:10;6.60;;;6.10;;
2622;SDS011;1321;48.690;9.022;2022-08-19T15:00:56;7.80;;;7.10;;
2622;SDS011;1321;48.690;9.022;2022-08-19T15:03:25;6.53;;;6.10;;
2622;SDS011;1321;48.690;9.022;2022-08-19T15:05:54;7.23;;;6.73;;
2622;SDS011;1321;48.690;9.022;2022-08-19T15:08:24;6.30;;;5.90;;
2622;SDS011;1321;48.690;9.022;2022-08-19T15:10:53;6.50;;;6.10;;
2622;SDS011;1321;48.690;9.022;2022-08-19T15:13:24;5.80;;;5.33;;
2622;SDS011;1321;48.690;9.022;2022-08-19T15:15:53;5.83;;;5.43;;
2622;SDS011;1321;48.690;9.022;2022-08-19T15:18:22;5.97;;;5.57;;
2622;SDS011;1321;48.690;9.022;2022-08-19T15:20:51;6.57;;;5.97;;
2622;SDS011;1321;48.690;9.022;2022-08-19T15:23:19;6.47;;;6.00;;
2622;SDS011;1321;48.690;9.022;2022-08-19T15:25:48;6.20;;;5.70;;